Terminal Aerodrome Forecast
Issued by NWS Twin Cities, MN

Home | Current Version | Previous Version | Text Only | Print | Product List | Glossary Off
Versions: 1 2 3 4 5 6 7 8 9 10 11 12 13 14 15 16

000
FTUS43 KMPX 171120
TAFEAU
TAF
KEAU 171120Z 1712/1812 19007KT P6SM SCT100 BKN250
     FM171400 20007KT 2SM -SN BR SCT010 OVC022
      TEMPO 1714/1717 3/4SM -SN BR VV008
     FM171700 24007KT P6SM SCT025 BKN050
     FM172000 26009KT P6SM SCT040 SCT200
     FM180200 27007KT P6SM SKC
     FM181000 VRB03KT P6SM BKN100=

USA.gov is the U.S. government's official web portal to all federal, state and local government web resources and services.